Latest Weather Observations for Narrandera Airport

IDN60801

Issued at 6:33 pm EDT Monday 2 March 2015 (issued every 30 minutes, with the page automatically refreshed every 10 minutes)

About weather observations | Map of weather stations | Latest weather observations for NSW | Other Formats
Station Details ID: 074148 Name: NARRANDERA AIRPORT AWS Lat: -34.70 Lon: 146.51 Height: 145.0 m
Data from the previous 72 hours. | See also: Recent months for locations in New South Wales
Date/Time
EDT
Temp
°C
App
Temp
°C
Dew
Point
Rel
Hum
%
Delta-T
°C
Wind Press
QNH
hPa
Press
MSL
hPa
Rain
since 9 am
mm
Dir
 
Spd
km/h
Gust
km/h
Spd
kts
Gust
kts
02/06:30pm 31.6 28.2 5.9 20 13.8 ENE 13 20 7 11 1010.5 1010.0 0.0
02/06:00pm 31.3 29.3 6.4 21 13.5 SE 6 11 3 6 1010.9 1010.4 0.0
02/05:30pm 32.0 29.0 6.2 20 13.9 ESE 11 17 6 9 1010.9 1010.4 0.0
02/05:00pm 31.6 29.5 5.9 20 13.8 NNE 6 13 3 7 1011.2 1010.7 0.0
02/04:30pm 31.3 28.8 6.4 21 13.4 ENE 9 20 5 11 1011.4 1010.9 0.0
02/04:00pm 32.3 29.6 7.2 21 13.8 NE 11 20 6 11 1011.5 1011.0 0.0
02/03:30pm 31.2 27.9 6.3 21 13.4 NNE 13 20 7 11 1012.2 1011.7 0.0
02/03:00pm 31.5 29.1 7.2 22 13.3 SE 9 26 5 14 1012.9 1012.3 0.0
02/02:30pm 29.4 27.5 9.0 28 11.4 NE 9 15 5 8 1013.3 1012.7 0.0
02/02:00pm 29.2 26.0 8.3 27 11.5 NNE 15 28 8 15 1013.8 1013.2 0.0
02/01:30pm 28.1 25.9 9.4 31 10.4 NE 11 17 6 9 1014.5 1013.9 0.0
02/01:00pm 28.1 26.1 10.3 33 10.1 ENE 11 22 6 12 1015.0 1014.4 0.0
02/12:30pm 27.3 24.1 10.1 34 9.7 ENE 17 22 9 12 1015.5 1014.9 0.0
02/12:00pm 26.4 23.5 9.7 35 9.3 ENE 15 26 8 14 1016.1 1015.5 0.0
02/11:30am 25.7 22.4 9.5 36 8.9 ENE 17 26 9 14 1016.4 1015.9 0.0
02/11:00am 24.3 20.2 8.7 37 8.4 ENE 20 30 11 16 1016.6 1016.1 0.0
02/10:30am 23.7 19.8 9.3 40 7.8 ENE 20 30 11 16 1016.8 1016.3 0.0
02/10:00am 22.0 17.0 8.2 41 7.3 E 24 33 13 18 1016.8 1016.3 0.0
02/09:30am 20.9 14.8 8.2 44 6.7 E 30 39 16 21 1016.7 1016.2 0.0
02/09:00am 19.6 13.1 8.0 47 6.0 E 32 41 17 22 1016.4 1015.9 0.0
02/08:30am 18.6 11.6 8.3 51 5.3 ENE 35 48 19 26 1016.3 1015.8 0.0
02/08:00am 17.9 13.4 8.5 54 4.9 E 22 32 12 17 1016.4 1015.9 0.0
02/07:30am 17.2 12.3 8.6 57 4.4 E 24 32 13 17 1016.3 1015.8 0.0
02/07:00am 17.0 11.9 9.2 60 4.1 E 26 32 14 17 1015.7 1015.1 0.0
02/06:30am 17.4 13.2 9.8 61 4.0 E 22 30 12 16 1015.4 1014.8 0.0
02/06:00am 17.6 13.7 10.7 64 3.7 E 22 28 12 15 1015.3 1014.7 0.0
02/05:30am 17.5 14.0 10.9 65 3.6 E 20 24 11 13 1015.0 1014.4 0.0
02/05:00am 17.8 14.5 10.9 64 3.7 E 19 24 10 13 1015.0 1014.4 0.0
02/04:30am 17.7 14.7 10.8 64 3.7 E 17 22 9 12 1014.7 1014.1 0.0
02/04:00am 17.9 15.1 11.2 65 3.7 E 17 22 9 12 1014.9 1014.3 0.0
02/03:30am 16.4 14.3 9.8 65 3.5 ESE 11 15 6 8 1014.8 1014.2 0.0
02/03:00am 15.9 13.7 7.7 58 4.1 SE 9 11 5 6 1014.8 1014.2 0.0
02/02:30am 16.4 13.4 6.2 51 5.0 SE 11 15 6 8 1014.9 1014.3 0.0
02/02:00am 17.2 13.8 6.1 48 5.5 S 13 15 7 8 1014.8 1014.2 0.0
02/01:30am 16.8 14.4 5.1 46 5.6 S 7 11 4 6 1014.7 1014.1 0.0
02/01:00am 17.7 13.8 5.3 44 6.0 SSW 15 17 8 9 1014.0 1013.4 0.0
02/12:30am 18.6 14.6 5.1 41 6.6 SSW 15 19 8 10 1013.9 1013.3 0.0
02/12:00am 19.0 15.3 4.7 39 6.9 SSW 13 17 7 9 1014.0 1013.4 0.0
 
Date/Time
EDT
Temp
°C
App
Temp
°C
Dew
Point
Rel
Hum
%
Delta-T
°C
Wind Press
QNH
hPa
Press
MSL
hPa
Rain
since 9 am
mm
Dir
 
Spd
km/h
Gust
km/h
Spd
kts
Gust
kts
01/11:30pm 19.8 15.4 4.7 37 7.4 SSW 17 24 9 13 1013.8 1013.2 0.0
01/11:00pm 20.0 15.6 4.5 36 7.5 SSW 17 20 9 11 1013.6 1013.0 0.0
01/10:30pm 20.2 16.2 4.7 36 7.6 SW 15 17 8 9 1013.6 1013.0 0.0
01/10:00pm 21.3 17.3 4.8 34 8.1 SW 15 19 8 10 1013.7 1013.1 0.0
01/09:30pm 21.7 17.7 4.7 33 8.4 SSW 15 20 8 11 1013.3 1012.7 0.0
01/09:00pm 22.6 18.2 4.6 31 8.9 SSW 17 22 9 12 1013.0 1012.4 0.0
01/08:30pm 23.3 18.4 4.3 29 9.4 SSW 19 26 10 14 1012.6 1012.0 0.0
01/08:00pm 24.1 18.9 3.4 26 10.2 SW 20 33 11 18 1012.4 1011.8 0.0
01/07:30pm 25.0 18.2 3.0 24 10.8 SSW 28 44 15 24 1011.9 1011.4 0.0
01/07:00pm 26.2 19.9 1.5 20 11.9 SSW 24 44 13 24 1011.6 1011.1 0.0
01/06:30pm 26.9 20.2 3.4 22 11.7 SSW 28 39 15 21 1011.2 1010.7 0.0
01/06:00pm 27.5 20.5 3.9 22 12.0 SSW 30 43 16 23 1010.8 1010.3 0.0
01/05:30pm 27.8 21.3 2.8 20 12.4 SSW 26 39 14 21 1010.5 1010.0 0.0
01/05:19pm 28.0 20.8 3.0 20 12.5 SW 30 48 16 26 1010.4 1009.9 0.0
01/05:00pm 28.2 21.9 3.8 21 12.4 SW 26 39 14 21 1010.3 1009.8 0.0
01/04:30pm 28.5 21.2 2.7 19 12.9 SSW 30 44 16 24 1010.1 1009.6 0.0
01/04:00pm 29.2 23.2 3.2 19 13.2 SW 24 44 13 24 1010.0 1009.4 0.0
01/03:30pm 29.0 23.2 4.5 21 12.6 SW 24 37 13 20 1010.2 1009.7 0.0
01/03:00pm 28.3 22.3 3.2 20 12.6 SW 24 37 13 20 1010.3 1009.8 0.0
01/02:30pm 29.2 23.9 6.6 24 12.1 SSW 24 35 13 19 1010.4 1009.9 0.0
01/02:00pm 27.1 22.5 8.0 30 10.4 SW 22 33 12 18 1010.5 1010.0 0.0
01/01:30pm 27.1 22.1 9.5 33 9.8 SW 26 39 14 21 1010.6 1010.1 0.0
01/01:00pm 25.3 21.9 12.5 45 7.4 SW 22 32 12 17 1010.9 1010.4 0.0
01/12:30pm 23.8 19.1 12.1 48 6.7 SW 28 39 15 21 1011.1 1010.6 0.0
01/12:00pm 24.6 20.5 13.8 51 6.4 SW 28 39 15 21 1011.0 1010.5 0.0
01/11:30am 24.4 20.4 14.2 53 6.1 SW 28 39 15 21 1010.8 1010.3 0.0
01/11:00am 25.3 21.6 15.0 53 6.2 SW 28 43 15 23 1010.3 1009.8 0.0
01/10:30am 24.9 21.3 15.2 54 5.9 SW 28 39 15 21 1009.9 1009.1 0.0
01/10:00am 23.7 21.1 16.0 62 4.7 SW 24 33 13 18 1009.7 1008.9 0.0
01/09:30am 23.0 20.4 15.8 64 4.4 SW 24 35 13 19 1009.4 1008.6 0.0
01/09:00am 23.5 20.7 15.3 60 5.0 SW 24 37 13 20 1008.8 1008.0 0.0
01/08:30am 23.5 22.5 15.5 60 4.8 SW 15 24 8 13 1008.3 1007.5 0.0
01/08:00am 22.6 19.7 15.2 63 4.4 SW 24 41 13 22 1007.6 1006.8 0.0
01/07:30am 23.8 22.7 14.2 55 5.7 SW 13 20 7 11 1007.0 1006.2 0.0
01/07:00am 23.9 23.9 13.7 53 6.0 WSW 6 9 3 5 1006.3 1005.5 0.0
01/06:30am 24.0 24.7 13.5 52 6.2 NNW 2 7 1 4 1005.5 1004.7 0.0
01/06:00am 24.2 24.0 13.7 52 6.2 S 7 11 4 6 1004.9 1004.2 0.0
01/05:30am 24.4 24.4 13.6 51 6.4 SW 6 11 3 6 1004.9 1004.2 0.0
01/05:00am 24.3 23.6 13.2 50 6.5 SE 9 13 5 7 1004.4 1003.7 0.0
01/04:30am 25.3 23.8 13.2 47 7.1 S 13 17 7 9 1004.7 1004.0 0.0
01/04:00am 25.6 24.1 13.1 46 7.4 S 13 17 7 9 1004.8 1004.1 0.0
01/03:30am 25.6 23.0 13.1 46 7.3 SSW 19 24 10 13 1004.5 1003.8 0.0
01/03:00am 26.6 22.5 12.6 42 8.2 SSW 26 35 14 19 1004.4 1003.7 0.0
01/02:30am 28.0 23.4 3.7 21 12.3 WSW 17 32 9 17 1004.2 1003.5 0.0
01/02:00am 26.2 24.1 4.1 24 11.2 WSW 4 7 2 4 1003.5 1002.7 0.0
01/01:30am 28.0 26.2 3.7 21 12.3 N 2 11 1 6 1003.5 1002.7 0.0
01/01:00am 26.0 23.3 3.9 24 11.1 NE 7 13 4 7 1003.4 1002.6 0.0
01/12:30am 24.2 22.6 4.6 28 9.8 ENE 2 11 1 6 1003.6 1002.8 0.0
01/12:00am 25.0 23.1 3.0 24 10.8 NE 2 9 1 5 1003.9 1003.1 0.0
 
Date/Time
EDT
Temp
°C
App
Temp
°C
Dew
Point
Rel
Hum
%
Delta-T
°C
Wind Press
QNH
hPa
Press
MSL
hPa
Rain
since 9 am
mm
Dir
 
Spd
km/h
Gust
km/h
Spd
kts
Gust
kts
28/11:30pm 25.6 21.8 4.1 25 10.8 NE 13 17 7 9 1003.9 1003.1 0.0
28/11:00pm 25.5 22.6 4.6 26 10.6 NE 9 9 5 5 1004.5 1003.8 0.0
28/10:30pm 26.3 24.5 5.3 26 10.8 NE 4 7 2 4 1004.9 1004.2 0.0
28/10:00pm 25.9 24.3 8.8 34 9.4 NE 7 9 4 5 1004.9 1004.2 0.0
28/09:30pm 26.7 26.3 8.2 31 10.0 CALM 0 0 0 0 1005.1 1004.4 0.0
28/09:00pm 29.0 27.9 5.1 22 12.5 CALM 0 0 0 0 1004.6 1003.9 0.0
28/08:30pm 30.0 29.2 6.6 23 12.6 CALM 0 0 0 0 1004.6 1003.9 0.0
28/08:00pm 32.7 30.2 1.7 14 15.7 NW 4 7 2 4 1004.6 1003.9 0.0
28/07:30pm 33.7 30.6 1.5 13 16.3 NNW 7 9 4 5 1004.3 1003.6 0.0
28/07:00pm 34.0 29.5 -0.6 11 17.0 NW 13 17 7 9 1004.2 1003.5 0.0
28/06:30pm 36.0 31.5 -0.4 10 18.1 WNW 13 28 7 15 1004.0 1003.2 0.0
28/06:00pm 36.3 31.8 -0.2 10 18.3 NW 13 20 7 11 1004.1 1003.4 0.0
28/05:30pm 36.4 31.7 -1.5 9 18.6 WNW 13 22 7 12 1004.1 1003.4 0.0
28/05:00pm 36.5 32.8 0.0 10 18.4 W 9 17 5 9 1004.2 1003.5 0.0
28/04:30pm 35.9 31.6 0.9 11 17.7 NW 13 24 7 13 1004.5 1003.8 0.0
28/04:00pm 36.1 32.2 1.0 11 17.9 NNW 11 24 6 13 1004.7 1004.0 0.0
28/03:30pm 35.6 31.4 -0.7 10 17.9 NW 11 26 6 14 1005.0 1004.3 0.0
28/03:00pm 36.3 30.7 -0.2 10 18.3 NNW 19 32 10 17 1005.5 1004.7 0.0
28/02:30pm 35.7 29.8 1.9 12 17.4 NNW 22 32 12 17 1006.1 1005.3 0.0
28/02:00pm 35.1 30.9 5.5 16 16.1 WNW 17 26 9 14 1006.5 1005.7 0.0
28/01:30pm 34.7 29.8 4.3 15 16.2 NW 19 28 10 15 1006.9 1006.1 0.0
28/01:00pm 35.2 30.4 5.6 16 16.1 NNW 20 35 11 19 1007.2 1006.4 0.0
28/12:30pm 33.6 29.7 5.2 17 15.2 NNW 15 28 8 15 1007.6 1006.8 0.0
28/12:00pm 33.5 29.5 6.7 19 14.7 NNW 17 22 9 12 1008.0 1007.2 0.0
28/11:30am 32.4 29.1 8.0 22 13.6 N 15 26 8 14 1008.1 1007.3 0.0
28/11:00am 32.1 28.1 8.4 23 13.3 N 19 30 10 16 1008.3 1007.5 0.0
28/10:30am 30.9 28.7 8.0 24 12.7 N 9 17 5 9 1008.4 1007.6 0.0
28/10:00am 29.4 27.5 9.0 28 11.4 N 9 13 5 7 1008.7 1007.9 0.0
28/09:30am 27.7 25.0 9.0 31 10.3 NE 13 19 7 10 1008.5 1007.7 0.0
28/09:00am 24.9 23.5 9.6 38 8.4 ESE 7 11 4 6 1008.4 1007.6 0.0
28/08:30am 23.4 23.3 9.4 41 7.6 CALM 0 0 0 0 1008.4 1007.6 0.0
28/08:00am 22.1 20.5 7.9 40 7.5 SE 6 7 3 4 1008.0 1007.2 0.0
28/07:30am 22.8 20.6 7.8 38 7.9 E 9 11 5 6 1007.8 1007.0 0.0
28/07:00am 21.1 20.6 7.7 42 7.0 CALM 0 0 0 0 1007.6 1006.8 0.0
28/06:30am 20.6 20.2 8.3 45 6.5 CALM 0 0 0 0 1007.4 1006.6 0.0
28/06:00am 20.6 20.4 8.9 47 6.2 CALM 0 0 0 0 1007.5 1006.7 0.0
28/05:30am 20.6 20.3 8.6 46 6.3 CALM 0 0 0 0 1007.4 1006.6 0.0
28/05:00am 20.5 19.7 8.2 45 6.5 SSE 2 7 1 4 1007.2 1006.4 0.0
28/04:30am 20.2 20.0 9.2 49 5.9 CALM 0 0 0 0 1007.2 1006.4 0.0
28/04:00am 20.2 20.3 10.0 52 5.5 CALM 0 0 0 0 1007.8 1007.0 0.0
28/03:30am 20.2 19.6 7.6 44 6.5 CALM 0 0 0 0 1008.1 1007.3 0.0
28/03:00am 20.3 19.8 7.7 44 6.5 CALM 0 0 0 0 1007.9 1007.1 0.0
28/02:30am 21.0 20.4 7.6 42 7.0 CALM 0 0 0 0 1008.1 1007.3 0.0
28/02:00am 20.9 20.4 7.9 43 6.8 CALM 0 0 0 0 1008.2 1007.4 0.0
28/01:30am 20.8 20.3 7.8 43 6.8 CALM 0 0 0 0 1008.2 1007.4 0.0
28/01:00am 20.8 20.4 8.1 44 6.7 CALM 0 0 0 0 1008.5 1007.7 0.0
28/12:30am 20.5 20.0 7.8 44 6.6 CALM 0 0 0 0 1008.5 1007.7 0.0
28/12:00am 21.1 20.5 7.3 41 7.2 CALM 0 0 0 0 1008.5 1007.7 0.0
 
Date/Time
EDT
Temp
°C
App
Temp
°C
Dew
Point
Rel
Hum
%
Delta-T
°C
Wind Press
QNH
hPa
Press
MSL
hPa
Rain
since 9 am
mm
Dir
 
Spd
km/h
Gust
km/h
Spd
kts
Gust
kts
27/11:30pm 20.8 20.5 8.8 46 6.4 CALM 0 0 0 0 1008.5 1007.7 0.0
27/11:00pm 21.5 21.5 9.7 47 6.4 CALM 0 0 0 0 1008.5 1007.7 0.0
27/10:30pm 22.3 21.6 6.9 37 8.0 CALM 0 0 0 0 1008.5 1007.7 0.0
27/10:00pm 23.5 22.6 5.9 32 9.0 CALM 0 0 0 0 1008.4 1007.6 0.0
27/09:30pm 26.6 24.4 5.5 26 10.9 SSW 6 7 3 4 1008.1 1007.3 0.0
27/09:00pm 27.1 24.4 5.4 25 11.3 SSW 9 13 5 7 1007.8 1007.0 0.0
27/08:30pm 28.6 25.5 5.5 23 12.1 SW 11 15 6 8 1007.6 1006.8 0.0
27/08:00pm 29.6 27.4 6.3 23 12.5 WSW 7 11 4 6 1007.1 1006.3 0.0
27/07:30pm 31.3 28.9 7.1 22 13.2 WNW 9 15 5 8 1006.8 1006.0 0.0
27/07:00pm 32.8 30.0 6.9 20 14.2 WSW 11 15 6 8 1006.5 1005.7 0.0

Other Formats:

Comma delimited format used in spreadsheet applications
http://www.bom.gov.au/fwo/IDN60801/IDN60801.95706.axf

JavaScript Object Notation format (JSON) in row-major order
http://www.bom.gov.au/fwo/IDN60801/IDN60801.95706.json